sensor_id;sensor_type;location;lat;lon;timestamp;pressure;altitude;pressure_sealevel;temperature;humidity
11880;BME280;5999;43.256;27.816;2022-08-01T00:01:47;100244.28;;;22.64;100.00
11880;BME280;5999;43.256;27.816;2022-08-01T00:04:14;100245.50;;;22.70;100.00
11880;BME280;5999;43.256;27.816;2022-08-01T00:06:41;100248.91;;;22.72;100.00
11880;BME280;5999;43.256;27.816;2022-08-01T00:09:08;100247.50;;;22.67;100.00
11880;BME280;5999;43.256;27.816;2022-08-01T00:11:35;100235.75;;;22.41;100.00
11880;BME280;5999;43.256;27.816;2022-08-01T00:14:03;100248.78;;;22.26;100.00
11880;BME280;5999;43.256;27.816;2022-08-01T00:16:30;100256.94;;;22.34;100.00
11880;BME280;5999;43.256;27.816;2022-08-01T00:18:57;100257.06;;;22.23;100.00
11880;BME280;5999;43.256;27.816;2022-08-01T00:21:24;100271.06;;;22.17;100.00
11880;BME280;5999;43.256;27.816;2022-08-01T00:23:51;100279.13;;;22.26;100.00
11880;BME280;5999;43.256;27.816;2022-08-01T00:26:18;100272.78;;;22.27;100.00
11880;BME280;5999;43.256;27.816;2022-08-01T00:28:45;100266.72;;;22.25;100.00
11880;BME280;5999;43.256;27.816;2022-08-01T00:31:12;100258.91;;;22.22;100.00
11880;BME280;5999;43.256;27.816;2022-08-01T00:33:39;100260.34;;;22.17;100.00
11880;BME280;5999;43.256;27.816;2022-08-01T00:36:05;100247.09;;;22.15;100.00
11880;BME280;5999;43.256;27.816;2022-08-01T00:38:32;100248.34;;;22.21;100.00
11880;BME280;5999;43.256;27.816;2022-08-01T00:41:00;100251.47;;;22.06;100.00
11880;BME280;5999;43.256;27.816;2022-08-01T00:43:27;100251.06;;;22.11;100.00
11880;BME280;5999;43.256;27.816;2022-08-01T00:45:54;100250.50;;;21.98;100.00
11880;BME280;5999;43.256;27.816;2022-08-01T00:48:21;100251.06;;;22.01;100.00
11880;BME280;5999;43.256;27.816;2022-08-01T00:50:48;100251.34;;;21.98;100.00
11880;BME280;5999;43.256;27.816;2022-08-01T00:53:15;100261.22;;;21.98;100.00
11880;BME280;5999;43.256;27.816;2022-08-01T00:55:42;100254.44;;;22.03;100.00
11880;BME280;5999;43.256;27.816;2022-08-01T00:58:09;100257.00;;;22.05;100.00
11880;BME280;5999;43.256;27.816;2022-08-01T01:00:37;100239.41;;;21.54;100.00
11880;BME280;5999;43.256;27.816;2022-08-01T01:03:03;100254.91;;;21.60;100.00
11880;BME280;5999;43.256;27.816;2022-08-01T01:05:33;100220.72;;;21.33;100.00
11880;BME280;5999;43.256;27.816;2022-08-01T01:08:06;100207.06;;;21.36;100.00
11880;BME280;5999;43.256;27.816;2022-08-01T01:10:40;100188.75;;;21.21;100.00
11880;BME280;5999;43.256;27.816;2022-08-01T01:13:16;100161.53;;;21.26;100.00
11880;BME280;5999;43.256;27.816;2022-08-01T01:15:47;100116.59;;;21.00;100.00
11880;BME280;5999;43.256;27.816;2022-08-01T01:18:22;100096.03;;;20.91;100.00
11880;BME280;5999;43.256;27.816;2022-08-01T01:20:55;100078.25;;;20.90;100.00
11880;BME280;5999;43.256;27.816;2022-08-01T01:23:40;100062.91;;;20.63;100.00
11880;BME280;5999;43.256;27.816;2022-08-01T01:26:22;100057.97;;;20.58;100.00
11880;BME280;5999;43.256;27.816;2022-08-01T01:29:06;100056.84;;;20.71;100.00
11880;BME280;5999;43.256;27.816;2022-08-01T01:31:41;100046.72;;;20.84;100.00
11880;BME280;5999;43.256;27.816;2022-08-01T01:34:12;100040.81;;;20.20;100.00
11880;BME280;5999;43.256;27.816;2022-08-01T01:36:40;100078.06;;;20.02;100.00
11880;BME280;5999;43.256;27.816;2022-08-01T01:39:09;100113.13;;;20.09;100.00
11880;BME280;5999;43.256;27.816;2022-08-01T01:41:38;100123.63;;;20.01;100.00
11880;BME280;5999;43.256;27.816;2022-08-01T01:44:06;100129.22;;;19.98;100.00
11880;BME280;5999;43.256;27.816;2022-08-01T01:46:34;100137.47;;;20.16;100.00
11880;BME280;5999;43.256;27.816;2022-08-01T01:49:02;100122.28;;;20.16;100.00
11880;BME280;5999;43.256;27.816;2022-08-01T01:51:30;100113.84;;;20.11;100.00
11880;BME280;5999;43.256;27.816;2022-08-01T01:53:59;100105.88;;;20.00;100.00
11880;BME280;5999;43.256;27.816;2022-08-01T01:56:29;100097.13;;;19.88;100.00
11880;BME280;5999;43.256;27.816;2022-08-01T01:58:59;100076.41;;;20.11;100.00
11880;BME280;5999;43.256;27.816;2022-08-01T02:01:31;100039.56;;;20.15;100.00
11880;BME280;5999;43.256;27.816;2022-08-01T02:04:00;100012.25;;;20.11;100.00
11880;BME280;5999;43.256;27.816;2022-08-01T02:06:30;99988.84;;;19.94;100.00
11880;BME280;5999;43.256;27.816;2022-08-01T02:08:59;99969.72;;;19.89;100.00
11880;BME280;5999;43.256;27.816;2022-08-01T02:11:27;99965.50;;;19.86;100.00
11880;BME280;5999;43.256;27.816;2022-08-01T02:13:58;99956.69;;;20.05;100.00
11880;BME280;5999;43.256;27.816;2022-08-01T02:16:28;99943.81;;;19.79;100.00
11880;BME280;5999;43.256;27.816;2022-08-01T02:18:56;99929.94;;;19.95;100.00
11880;BME280;5999;43.256;27.816;2022-08-01T02:21:26;99916.59;;;20.05;100.00
11880;BME280;5999;43.256;27.816;2022-08-01T02:23:55;99903.38;;;20.13;100.00
11880;BME280;5999;43.256;27.816;2022-08-01T02:26:28;99879.44;;;20.02;100.00
11880;BME280;5999;43.256;27.816;2022-08-01T02:28:59;99864.00;;;20.05;100.00
11880;BME280;5999;43.256;27.816;2022-08-01T02:31:34;99847.69;;;20.09;100.00
11880;BME280;5999;43.256;27.816;2022-08-01T02:34:06;99836.56;;;20.03;100.00
11880;BME280;5999;43.256;27.816;2022-08-01T02:36:34;99838.53;;;20.11;100.00
11880;BME280;5999;43.256;27.816;2022-08-01T02:39:06;99838.97;;;20.06;100.00
11880;BME280;5999;43.256;27.816;2022-08-01T02:41:38;99820.69;;;19.92;100.00
11880;BME280;5999;43.256;27.816;2022-08-01T02:44:08;99821.22;;;19.76;100.00
11880;BME280;5999;43.256;27.816;2022-08-01T02:46:39;99809.44;;;19.89;100.00
11880;BME280;5999;43.256;27.816;2022-08-01T02:49:09;99809.13;;;19.72;100.00
11880;BME280;5999;43.256;27.816;2022-08-01T02:51:37;99812.66;;;19.82;100.00
11880;BME280;5999;43.256;27.816;2022-08-01T02:54:06;99815.28;;;19.63;100.00
11880;BME280;5999;43.256;27.816;2022-08-01T02:56:35;99805.44;;;19.54;100.00
11880;BME280;5999;43.256;27.816;2022-08-01T02:59:05;99803.50;;;19.75;100.00
11880;BME280;5999;43.256;27.816;2022-08-01T03:01:33;99810.28;;;19.99;100.00
11880;BME280;5999;43.256;27.816;2022-08-01T03:04:02;99820.69;;;19.92;100.00
11880;BME280;5999;43.256;27.816;2022-08-01T03:06:31;99821.53;;;19.93;100.00
11880;BME280;5999;43.256;27.816;2022-08-01T03:09:00;99819.25;;;19.98;100.00
11880;BME280;5999;43.256;27.816;2022-08-01T03:11:28;99812.50;;;20.03;100.00
11880;BME280;5999;43.256;27.816;2022-08-01T03:13:57;99814.50;;;20.11;100.00
11880;BME280;5999;43.256;27.816;2022-08-01T03:16:27;99813.22;;;20.15;100.00
11880;BME280;5999;43.256;27.816;2022-08-01T03:18:55;99807.88;;;20.15;100.00
11880;BME280;5999;43.256;27.816;2022-08-01T03:21:24;99800.81;;;20.14;100.00
11880;BME280;5999;43.256;27.816;2022-08-01T03:23:53;99799.16;;;20.13;100.00
11880;BME280;5999;43.256;27.816;2022-08-01T03:26:26;99802.66;;;20.14;100.00
11880;BME280;5999;43.256;27.816;2022-08-01T03:28:56;99793.94;;;20.12;100.00
11880;BME280;5999;43.256;27.816;2022-08-01T03:31:25;99789.56;;;20.20;100.00
11880;BME280;5999;43.256;27.816;2022-08-01T03:33:53;99795.06;;;20.09;100.00
11880;BME280;5999;43.256;27.816;2022-08-01T03:36:22;99795.59;;;20.22;100.00
11880;BME280;5999;43.256;27.816;2022-08-01T03:38:53;99792.41;;;20.19;100.00
11880;BME280;5999;43.256;27.816;2022-08-01T03:41:24;99786.50;;;20.15;100.00
11880;BME280;5999;43.256;27.816;2022-08-01T03:43:58;99782.94;;;20.34;100.00
11880;BME280;5999;43.256;27.816;2022-08-01T03:46:32;99781.09;;;20.35;100.00
11880;BME280;5999;43.256;27.816;2022-08-01T03:49:03;99767.97;;;20.51;100.00
11880;BME280;5999;43.256;27.816;2022-08-01T03:51:33;99765.88;;;20.45;100.00
11880;BME280;5999;43.256;27.816;2022-08-01T03:54:01;99757.84;;;20.45;100.00
11880;BME280;5999;43.256;27.816;2022-08-01T03:56:31;99767.56;;;20.46;100.00
11880;BME280;5999;43.256;27.816;2022-08-01T03:59:00;99759.25;;;20.49;100.00
11880;BME280;5999;43.256;27.816;2022-08-01T04:01:28;99747.56;;;20.50;100.00
11880;BME280;5999;43.256;27.816;2022-08-01T04:03:55;99731.97;;;20.45;100.00
11880;BME280;5999;43.256;27.816;2022-08-01T04:06:22;99732.78;;;20.56;100.00
11880;BME280;5999;43.256;27.816;2022-08-01T04:08:49;99721.47;;;20.72;100.00
11880;BME280;5999;43.256;27.816;2022-08-01T04:11:23;99716.38;;;20.78;100.00
11880;BME280;5999;43.256;27.816;2022-08-01T04:13:51;99716.00;;;20.91;100.00
11880;BME280;5999;43.256;27.816;2022-08-01T04:16:19;99716.81;;;21.01;100.00
11880;BME280;5999;43.256;27.816;2022-08-01T04:18:46;99711.59;;;21.00;100.00
11880;BME280;5999;43.256;27.816;2022-08-01T04:21:13;99704.81;;;21.05;100.00
11880;BME280;5999;43.256;27.816;2022-08-01T04:23:41;99690.53;;;21.15;100.00
11880;BME280;5999;43.256;27.816;2022-08-01T04:26:11;99676.81;;;21.18;100.00
11880;BME280;5999;43.256;27.816;2022-08-01T04:28:40;99678.34;;;21.20;100.00
11880;BME280;5999;43.256;27.816;2022-08-01T04:31:09;99675.38;;;21.23;100.00
11880;BME280;5999;43.256;27.816;2022-08-01T04:33:39;99676.97;;;21.34;100.00
11880;BME280;5999;43.256;27.816;2022-08-01T04:36:08;99686.56;;;21.55;100.00
11880;BME280;5999;43.256;27.816;2022-08-01T04:38:37;99676.47;;;21.49;100.00
11880;BME280;5999;43.256;27.816;2022-08-01T04:41:07;99668.72;;;21.63;100.00
11880;BME280;5999;43.256;27.816;2022-08-01T04:43:36;99664.97;;;21.74;100.00
11880;BME280;5999;43.256;27.816;2022-08-01T04:46:04;99653.72;;;21.71;100.00
11880;BME280;5999;43.256;27.816;2022-08-01T04:48:32;99656.56;;;21.95;100.00
11880;BME280;5999;43.256;27.816;2022-08-01T04:51:01;99645.00;;;21.95;100.00
11880;BME280;5999;43.256;27.816;2022-08-01T04:53:28;99635.31;;;22.02;100.00
11880;BME280;5999;43.256;27.816;2022-08-01T04:55:54;99628.94;;;21.95;100.00
11880;BME280;5999;43.256;27.816;2022-08-01T04:58:22;99618.28;;;22.11;100.00
11880;BME280;5999;43.256;27.816;2022-08-01T05:00:49;99628.72;;;22.22;100.00
11880;BME280;5999;43.256;27.816;2022-08-01T05:03:16;99623.50;;;22.21;100.00
11880;BME280;5999;43.256;27.816;2022-08-01T05:05:43;99617.97;;;22.14;100.00
11880;BME280;5999;43.256;27.816;2022-08-01T05:08:10;99626.78;;;22.33;100.00
11880;BME280;5999;43.256;27.816;2022-08-01T05:10:37;99622.13;;;22.43;100.00
11880;BME280;5999;43.256;27.816;2022-08-01T05:13:04;99621.25;;;22.69;100.00
11880;BME280;5999;43.256;27.816;2022-08-01T05:15:32;99605.50;;;22.90;100.00
11880;BME280;5999;43.256;27.816;2022-08-01T05:17:59;99604.88;;;23.21;100.00
11880;BME280;5999;43.256;27.816;2022-08-01T05:20:27;99599.88;;;23.18;100.00
11880;BME280;5999;43.256;27.816;2022-08-01T05:22:54;99605.91;;;23.20;100.00
11880;BME280;5999;43.256;27.816;2022-08-01T05:25:21;99611.94;;;23.71;100.00
11880;BME280;5999;43.256;27.816;2022-08-01T05:27:49;99614.63;;;23.79;100.00
11880;BME280;5999;43.256;27.816;2022-08-01T05:30:16;99612.13;;;24.34;100.00
11880;BME280;5999;43.256;27.816;2022-08-01T05:32:43;99610.03;;;24.04;100.00
11880;BME280;5999;43.256;27.816;2022-08-01T05:35:10;99615.28;;;23.90;100.00
11880;BME280;5999;43.256;27.816;2022-08-01T05:37:38;99622.59;;;24.20;100.00
11880;BME280;5999;43.256;27.816;2022-08-01T05:40:05;99622.25;;;24.23;100.00
11880;BME280;5999;43.256;27.816;2022-08-01T05:42:32;99627.78;;;24.70;100.00
11880;BME280;5999;43.256;27.816;2022-08-01T05:44:59;99622.44;;;24.93;100.00
11880;BME280;5999;43.256;27.816;2022-08-01T05:47:26;99616.63;;;24.50;100.00
11880;BME280;5999;43.256;27.816;2022-08-01T05:49:53;99608.72;;;24.48;100.00
11880;BME280;5999;43.256;27.816;2022-08-01T05:52:20;99613.34;;;24.71;100.00
11880;BME280;5999;43.256;27.816;2022-08-01T05:54:48;99618.97;;;24.53;100.00
11880;BME280;5999;43.256;27.816;2022-08-01T05:57:15;99613.41;;;24.54;99.35
11880;BME280;5999;43.256;27.816;2022-08-01T05:59:41;99611.31;;;24.96;100.00
11880;BME280;5999;43.256;27.816;2022-08-01T06:02:08;99613.22;;;25.10;95.13
11880;BME280;5999;43.256;27.816;2022-08-01T06:04:35;99609.88;;;25.54;95.99
11880;BME280;5999;43.256;27.816;2022-08-01T06:07:02;99608.09;;;25.46;89.15
11880;BME280;5999;43.256;27.816;2022-08-01T06:09:29;99599.06;;;25.39;87.43
11880;BME280;5999;43.256;27.816;2022-08-01T06:11:57;99603.03;;;25.66;88.01
11880;BME280;5999;43.256;27.816;2022-08-01T06:14:24;99595.78;;;25.67;84.89
11880;BME280;5999;43.256;27.816;2022-08-01T06:16:51;99597.81;;;25.80;85.02
11880;BME280;5999;43.256;27.816;2022-08-01T06:19:18;99598.13;;;25.85;81.22
11880;BME280;5999;43.256;27.816;2022-08-01T06:21:44;99590.31;;;26.05;84.35
11880;BME280;5999;43.256;27.816;2022-08-01T06:24:11;99600.38;;;26.11;78.13
11880;BME280;5999;43.256;27.816;2022-08-01T06:26:38;99594.69;;;26.21;83.31
11880;BME280;5999;43.256;27.816;2022-08-01T06:29:06;99596.00;;;26.25;81.25
11880;BME280;5999;43.256;27.816;2022-08-01T06:31:33;99594.50;;;26.52;73.98
11880;BME280;5999;43.256;27.816;2022-08-01T06:34:00;99598.47;;;26.93;79.16
11880;BME280;5999;43.256;27.816;2022-08-01T06:36:27;99600.09;;;27.09;77.42
11880;BME280;5999;43.256;27.816;2022-08-01T06:38:53;99595.88;;;27.71;72.53
11880;BME280;5999;43.256;27.816;2022-08-01T06:41:20;99598.81;;;27.48;70.95
11880;BME280;5999;43.256;27.816;2022-08-01T06:43:47;99596.75;;;27.78;66.88
11880;BME280;5999;43.256;27.816;2022-08-01T06:46:15;99597.34;;;27.45;63.66
11880;BME280;5999;43.256;27.816;2022-08-01T06:48:42;99597.34;;;28.01;67.67
11880;BME280;5999;43.256;27.816;2022-08-01T06:51:08;99595.81;;;28.27;64.41
11880;BME280;5999;43.256;27.816;2022-08-01T06:53:36;99598.09;;;27.89;66.33
11880;BME280;5999;43.256;27.816;2022-08-01T06:56:04;99593.25;;;27.56;64.66
11880;BME280;5999;43.256;27.816;2022-08-01T06:58:31;99587.94;;;28.32;71.82
11880;BME280;5999;43.256;27.816;2022-08-01T07:00:58;99587.97;;;27.69;63.92
11880;BME280;5999;43.256;27.816;2022-08-01T07:03:26;99587.13;;;27.40;61.39
11880;BME280;5999;43.256;27.816;2022-08-01T07:05:53;99580.28;;;27.44;66.00
11880;BME280;5999;43.256;27.816;2022-08-01T07:08:20;99585.88;;;28.41;66.38
11880;BME280;5999;43.256;27.816;2022-08-01T07:10:47;99578.94;;;28.73;63.09
11880;BME280;5999;43.256;27.816;2022-08-01T07:13:14;99569.75;;;28.61;60.63
11880;BME280;5999;43.256;27.816;2022-08-01T07:15:46;99571.16;;;27.80;59.34
11880;BME280;5999;43.256;27.816;2022-08-01T07:18:13;99566.13;;;27.71;59.25
11880;BME280;5999;43.256;27.816;2022-08-01T07:20:41;99567.56;;;27.38;61.03
11880;BME280;5999;43.256;27.816;2022-08-01T07:23:08;99561.94;;;27.96;62.57
11880;BME280;5999;43.256;27.816;2022-08-01T07:25:34;99569.81;;;28.39;60.52
11880;BME280;5999;43.256;27.816;2022-08-01T07:28:01;99555.69;;;29.12;62.33
11880;BME280;5999;43.256;27.816;2022-08-01T07:30:28;99561.88;;;28.93;56.21
11880;BME280;5999;43.256;27.816;2022-08-01T07:32:55;99568.63;;;29.30;52.92
11880;BME280;5999;43.256;27.816;2022-08-01T07:35:22;99552.88;;;28.17;54.68
11880;BME280;5999;43.256;27.816;2022-08-01T07:37:50;99564.81;;;27.95;59.09
11880;BME280;5999;43.256;27.816;2022-08-01T07:40:17;99560.00;;;28.32;55.68
11880;BME280;5999;43.256;27.816;2022-08-01T07:42:44;99559.44;;;29.18;57.38
11880;BME280;5999;43.256;27.816;2022-08-01T07:45:12;99560.22;;;28.98;55.64
11880;BME280;5999;43.256;27.816;2022-08-01T07:47:39;99562.72;;;29.07;52.01
11880;BME280;5999;43.256;27.816;2022-08-01T07:50:07;99569.31;;;28.57;54.06
11880;BME280;5999;43.256;27.816;2022-08-01T07:52:34;99562.31;;;29.70;57.48
11880;BME280;5999;43.256;27.816;2022-08-01T07:55:01;99553.25;;;30.09;51.36
11880;BME280;5999;43.256;27.816;2022-08-01T07:57:28;99569.06;;;30.25;53.05
11880;BME280;5999;43.256;27.816;2022-08-01T07:59:56;99562.06;;;30.95;51.58
11880;BME280;5999;43.256;27.816;2022-08-01T08:02:22;99571.72;;;31.22;49.81
11880;BME280;5999;43.256;27.816;2022-08-01T08:04:49;99564.69;;;31.65;48.23
11880;BME280;5999;43.256;27.816;2022-08-01T08:07:16;99563.81;;;30.44;45.46
11880;BME280;5999;43.256;27.816;2022-08-01T08:09:43;99571.94;;;29.59;49.75
11880;BME280;5999;43.256;27.816;2022-08-01T08:12:11;99564.78;;;30.63;49.69
11880;BME280;5999;43.256;27.816;2022-08-01T08:14:38;99566.25;;;30.52;48.91
11880;BME280;5999;43.256;27.816;2022-08-01T08:17:06;99568.16;;;29.60;48.38
11880;BME280;5999;43.256;27.816;2022-08-01T08:19:33;99571.88;;;29.99;53.10
11880;BME280;5999;43.256;27.816;2022-08-01T08:22:00;99563.84;;;31.08;49.68
11880;BME280;5999;43.256;27.816;2022-08-01T08:24:27;99566.69;;;31.51;45.71
11880;BME280;5999;43.256;27.816;2022-08-01T08:26:56;99572.28;;;32.37;48.84
11880;BME280;5999;43.256;27.816;2022-08-01T08:29:25;99573.19;;;32.31;45.32
11880;BME280;5999;43.256;27.816;2022-08-01T08:31:53;99578.22;;;31.72;47.49
11880;BME280;5999;43.256;27.816;2022-08-01T08:34:21;99576.22;;;32.22;42.36
11880;BME280;5999;43.256;27.816;2022-08-01T08:36:48;99579.84;;;32.35;40.87
11880;BME280;5999;43.256;27.816;2022-08-01T08:39:16;99574.53;;;32.21;44.56
11880;BME280;5999;43.256;27.816;2022-08-01T08:41:43;99573.06;;;31.63;44.04
11880;BME280;5999;43.256;27.816;2022-08-01T08:44:10;99572.78;;;31.47;42.52
11880;BME280;5999;43.256;27.816;2022-08-01T08:46:41;99576.13;;;29.81;46.33
11880;BME280;5999;43.256;27.816;2022-08-01T08:49:09;99572.34;;;29.82;46.21
11880;BME280;5999;43.256;27.816;2022-08-01T08:51:39;99576.84;;;30.15;47.22
11880;BME280;5999;43.256;27.816;2022-08-01T08:54:06;99570.78;;;30.72;46.26
11880;BME280;5999;43.256;27.816;2022-08-01T08:56:35;99570.72;;;31.67;49.98
11880;BME280;5999;43.256;27.816;2022-08-01T08:59:02;99582.13;;;31.57;46.65
11880;BME280;5999;43.256;27.816;2022-08-01T09:01:31;99570.03;;;32.64;47.28
11880;BME280;5999;43.256;27.816;2022-08-01T09:04:00;99565.72;;;33.40;42.13
11880;BME280;5999;43.256;27.816;2022-08-01T09:06:27;99561.00;;;33.36;39.98
11880;BME280;5999;43.256;27.816;2022-08-01T09:08:55;99570.38;;;30.68;42.25
11880;BME280;5999;43.256;27.816;2022-08-01T09:11:22;99570.56;;;31.37;46.27
11880;BME280;5999;43.256;27.816;2022-08-01T09:14:05;99561.66;;;32.77;44.19
11880;BME280;5999;43.256;27.816;2022-08-01T09:16:33;99565.16;;;32.36;40.86
11880;BME280;5999;43.256;27.816;2022-08-01T09:19:14;99555.34;;;32.65;44.00
11880;BME280;5999;43.256;27.816;2022-08-01T09:21:56;99556.59;;;32.81;43.17
11880;BME280;5999;43.256;27.816;2022-08-01T09:24:25;99552.34;;;33.39;40.02
11880;BME280;5999;43.256;27.816;2022-08-01T09:26:53;99549.47;;;33.93;40.70
11880;BME280;5999;43.256;27.816;2022-08-01T09:29:22;99550.97;;;34.24;39.52
11880;BME280;5999;43.256;27.816;2022-08-01T09:31:50;99556.97;;;34.95;39.32
11880;BME280;5999;43.256;27.816;2022-08-01T09:34:25;99558.34;;;35.44;39.94
11880;BME280;5999;43.256;27.816;2022-08-01T09:36:53;99550.88;;;35.05;36.69
11880;BME280;5999;43.256;27.816;2022-08-01T09:39:23;99552.59;;;35.62;38.05
11880;BME280;5999;43.256;27.816;2022-08-01T09:41:51;99548.91;;;33.55;36.83
11880;BME280;5999;43.256;27.816;2022-08-01T09:44:18;99547.69;;;32.74;39.92
11880;BME280;5999;43.256;27.816;2022-08-01T09:46:54;99543.41;;;33.20;37.70
11880;BME280;5999;43.256;27.816;2022-08-01T09:49:30;99541.78;;;33.54;39.92
11880;BME280;5999;43.256;27.816;2022-08-01T09:51:58;99546.88;;;33.86;40.24
11880;BME280;5999;43.256;27.816;2022-08-01T09:54:31;99533.22;;;32.43;38.91
11880;BME280;5999;43.256;27.816;2022-08-01T09:57:13;99542.63;;;32.89;39.33
11880;BME280;5999;43.256;27.816;2022-08-01T09:59:44;99555.25;;;34.08;40.91
11880;BME280;5999;43.256;27.816;2022-08-01T10:02:12;99546.94;;;34.27;38.25
11880;BME280;5999;43.256;27.816;2022-08-01T10:04:48;99556.94;;;35.24;36.17
11880;BME280;5999;43.256;27.816;2022-08-01T10:07:16;99555.22;;;34.32;37.83
11880;BME280;5999;43.256;27.816;2022-08-01T10:09:43;99559.53;;;34.04;38.86
11880;BME280;5999;43.256;27.816;2022-08-01T10:12:14;99560.69;;;34.32;38.43
11880;BME280;5999;43.256;27.816;2022-08-01T10:14:43;99543.47;;;35.06;38.23
11880;BME280;5999;43.256;27.816;2022-08-01T10:17:13;99555.13;;;35.86;36.89
11880;BME280;5999;43.256;27.816;2022-08-01T10:19:42;99553.09;;;34.91;36.42
11880;BME280;5999;43.256;27.816;2022-08-01T10:22:12;99547.47;;;36.27;38.53
11880;BME280;5999;43.256;27.816;2022-08-01T10:24:44;99552.13;;;36.75;34.59
11880;BME280;5999;43.256;27.816;2022-08-01T10:27:15;99553.28;;;35.69;35.54
11880;BME280;5999;43.256;27.816;2022-08-01T10:29:46;99550.34;;;34.62;37.36
11880;BME280;5999;43.256;27.816;2022-08-01T10:32:14;99550.56;;;35.35;38.17
11880;BME280;5999;43.256;27.816;2022-08-01T10:34:42;99555.91;;;35.64;37.03
11880;BME280;5999;43.256;27.816;2022-08-01T10:37:10;99549.47;;;35.70;36.33
11880;BME280;5999;43.256;27.816;2022-08-01T10:39:39;99547.94;;;34.78;36.51
11880;BME280;5999;43.256;27.816;2022-08-01T10:42:10;99555.16;;;34.27;37.44
11880;BME280;5999;43.256;27.816;2022-08-01T10:44:38;99557.66;;;34.05;37.65
11880;BME280;5999;43.256;27.816;2022-08-01T10:47:10;99551.75;;;33.72;38.39
11880;BME280;5999;43.256;27.816;2022-08-01T10:49:43;99548.69;;;32.12;40.31
11880;BME280;5999;43.256;27.816;2022-08-01T10:52:15;99544.84;;;33.34;39.99
11880;BME280;5999;43.256;27.816;2022-08-01T10:54:43;99543.31;;;34.38;37.10
11880;BME280;5999;43.256;27.816;2022-08-01T10:57:10;99553.03;;;34.46;36.06
11880;BME280;5999;43.256;27.816;2022-08-01T10:59:48;99557.00;;;34.38;38.93
11880;BME280;5999;43.256;27.816;2022-08-01T11:02:27;99549.34;;;34.52;36.95
11880;BME280;5999;43.256;27.816;2022-08-01T11:04:57;99553.81;;;34.70;39.02
11880;BME280;5999;43.256;27.816;2022-08-01T11:07:42;99541.97;;;35.83;37.52
11880;BME280;5999;43.256;27.816;2022-08-01T11:10:19;99538.50;;;35.70;35.46
11880;BME280;5999;43.256;27.816;2022-08-01T11:12:48;99535.97;;;35.30;35.61
11880;BME280;5999;43.256;27.816;2022-08-01T11:15:24;99543.31;;;34.95;37.30
11880;BME280;5999;43.256;27.816;2022-08-01T11:17:53;99536.56;;;34.69;38.45
11880;BME280;5999;43.256;27.816;2022-08-01T11:20:21;99530.56;;;35.18;35.58
11880;BME280;5999;43.256;27.816;2022-08-01T11:26:13;99514.25;;;33.56;36.97
11880;BME280;5999;43.256;27.816;2022-08-01T11:28:42;99521.13;;;33.70;37.83
11880;BME280;5999;43.256;27.816;2022-08-01T11:31:29;99517.75;;;34.15;37.50
11880;BME280;5999;43.256;27.816;2022-08-01T11:33:56;99525.13;;;34.03;37.40
11880;BME280;5999;43.256;27.816;2022-08-01T11:36:23;99523.59;;;33.36;38.27
11880;BME280;5999;43.256;27.816;2022-08-01T11:39:14;99525.75;;;33.34;39.22
11880;BME280;5999;43.256;27.816;2022-08-01T11:41:44;99527.19;;;33.37;38.16
11880;BME280;5999;43.256;27.816;2022-08-01T11:44:13;99523.41;;;32.84;38.23
11880;BME280;5999;43.256;27.816;2022-08-01T11:46:56;99522.31;;;33.27;38.53
11880;BME280;5999;43.256;27.816;2022-08-01T11:49:43;99518.13;;;32.40;37.32
11880;BME280;5999;43.256;27.816;2022-08-01T11:52:12;99510.81;;;33.25;38.84
11880;BME280;5999;43.256;27.816;2022-08-01T11:54:41;99513.81;;;33.99;39.25
11880;BME280;5999;43.256;27.816;2022-08-01T11:57:10;99505.66;;;33.88;38.30
11880;BME280;5999;43.256;27.816;2022-08-01T11:59:39;99511.72;;;33.90;35.60
11880;BME280;5999;43.256;27.816;2022-08-01T12:02:16;99524.03;;;34.16;37.64
11880;BME280;5999;43.256;27.816;2022-08-01T12:04:48;99507.50;;;34.51;37.93
11880;BME280;5999;43.256;27.816;2022-08-01T12:07:16;99507.16;;;34.93;36.05
11880;BME280;5999;43.256;27.816;2022-08-01T12:09:43;99507.16;;;34.93;36.10
11880;BME280;5999;43.256;27.816;2022-08-01T12:12:11;99506.34;;;35.44;33.82
11880;BME280;5999;43.256;27.816;2022-08-01T12:14:39;99503.28;;;35.79;33.80
11880;BME280;5999;43.256;27.816;2022-08-01T12:17:06;99493.47;;;34.31;34.72
11880;BME280;5999;43.256;27.816;2022-08-01T12:19:32;99504.91;;;34.16;38.64
11880;BME280;5999;43.256;27.816;2022-08-01T12:22:07;99501.03;;;35.20;36.66
11880;BME280;5999;43.256;27.816;2022-08-01T12:24:35;99505.91;;;35.52;34.19
11880;BME280;5999;43.256;27.816;2022-08-01T12:27:02;99501.38;;;35.79;36.43
11880;BME280;5999;43.256;27.816;2022-08-01T12:29:34;99500.38;;;34.21;35.05
11880;BME280;5999;43.256;27.816;2022-08-01T12:32:01;99487.66;;;33.39;36.68
11880;BME280;5999;43.256;27.816;2022-08-01T12:34:29;99483.38;;;33.20;38.56
11880;BME280;5999;43.256;27.816;2022-08-01T12:36:57;99487.75;;;33.56;38.13
11880;BME280;5999;43.256;27.816;2022-08-01T12:39:31;99490.50;;;33.68;39.10
11880;BME280;5999;43.256;27.816;2022-08-01T12:41:58;99489.25;;;34.69;36.98
11880;BME280;5999;43.256;27.816;2022-08-01T12:44:26;99483.34;;;35.45;35.61
11880;BME280;5999;43.256;27.816;2022-08-01T12:46:54;99469.94;;;35.65;35.27
11880;BME280;5999;43.256;27.816;2022-08-01T12:49:21;99478.44;;;35.86;35.35
11880;BME280;5999;43.256;27.816;2022-08-01T12:51:49;99481.47;;;36.11;34.89
11880;BME280;5999;43.256;27.816;2022-08-01T12:54:16;99477.22;;;36.20;34.13
11880;BME280;5999;43.256;27.816;2022-08-01T12:56:43;99477.03;;;36.05;36.01
11880;BME280;5999;43.256;27.816;2022-08-01T12:59:21;99479.91;;;35.93;35.56
11880;BME280;5999;43.256;27.816;2022-08-01T13:01:50;99477.94;;;36.11;35.04
11880;BME280;5999;43.256;27.816;2022-08-01T13:04:18;99471.47;;;35.39;36.46
11880;BME280;5999;43.256;27.816;2022-08-01T13:06:45;99465.47;;;35.59;35.29
11880;BME280;5999;43.256;27.816;2022-08-01T13:09:12;99469.75;;;35.94;34.24